createdAt,value
2022-08-17T00:00:36.902Z,20.93
2022-08-17T00:05:39.762Z,20.88
2022-08-17T00:10:42.732Z,20.81
2022-08-17T00:15:46.564Z,20.78
2022-08-17T00:20:48.983Z,20.80
2022-08-17T00:25:52.061Z,20.73
2022-08-17T00:30:54.484Z,20.68
2022-08-17T00:35:56.967Z,20.71
2022-08-17T00:41:10.356Z,20.64
2022-08-17T00:46:16.025Z,20.62
2022-08-17T00:51:33.700Z,20.64
2022-08-17T00:56:44.669Z,20.53
2022-08-17T01:01:48.389Z,20.49
2022-08-17T01:06:51.346Z,20.45
2022-08-17T01:11:53.773Z,20.27
2022-08-17T01:16:56.677Z,20.08
2022-08-17T01:22:05.124Z,19.98
2022-08-17T01:27:10.340Z,19.91
2022-08-17T01:32:13.286Z,19.88
2022-08-17T01:37:15.832Z,19.86
2022-08-17T01:42:23.831Z,19.84
2022-08-17T01:47:26.174Z,19.92
2022-08-17T01:52:29.920Z,19.96
2022-08-17T01:57:32.441Z,20.01
2022-08-17T02:02:34.751Z,20.04
2022-08-17T02:07:59.383Z,20.05
2022-08-17T02:12:59.907Z,20.08
2022-08-17T02:18:03.817Z,20.05
2022-08-17T02:23:08.971Z,19.90
2022-08-17T02:28:11.452Z,19.88
2022-08-17T02:33:13.899Z,19.99
2022-08-17T02:38:17.533Z,20.09
2022-08-17T02:43:20.008Z,20.73
2022-08-17T02:48:30.423Z,20.83
2022-08-17T02:53:35.901Z,21.90
2022-08-17T02:58:38.569Z,22.07
2022-08-17T03:03:41.425Z,22.16
2022-08-17T03:08:43.790Z,22.40
2022-08-17T03:13:46.220Z,22.39
2022-08-17T03:18:49.289Z,22.16
2022-08-17T03:23:54.270Z,22.19
2022-08-17T03:28:56.872Z,22.40
2022-08-17T03:33:59.275Z,22.53
2022-08-17T03:39:02.327Z,22.66
2022-08-17T03:44:04.952Z,23.02
2022-08-17T03:49:26.708Z,23.16
2022-08-17T03:54:47.522Z,23.22
2022-08-17T03:59:49.975Z,23.11
2022-08-17T04:04:52.943Z,23.10
2022-08-17T04:09:55.322Z,23.31
2022-08-17T04:14:57.741Z,23.02
2022-08-17T04:20:00.083Z,23.13
2022-08-17T04:25:06.647Z,23.08
2022-08-17T04:30:09.626Z,22.82
2022-08-17T04:35:12.391Z,22.89
2022-08-17T04:43:41.183Z,23.08
2022-08-17T04:48:48.684Z,23.37
2022-08-17T04:53:58.394Z,23.72
2022-08-17T04:59:04.803Z,23.97
2022-08-17T05:04:25.157Z,24.23
2022-08-17T05:09:33.093Z,24.24
2022-08-17T05:14:35.648Z,24.40
2022-08-17T05:19:38.413Z,24.46
2022-08-17T05:24:43.679Z,24.70
2022-08-17T05:29:57.472Z,24.73
2022-08-17T05:35:00.866Z,24.74
2022-08-17T05:40:04.442Z,24.49
2022-08-17T05:45:09.626Z,24.75
2022-08-17T05:50:27.080Z,24.94
2022-08-17T05:55:37.407Z,25.06
2022-08-17T06:00:54.232Z,25.50
2022-08-17T06:06:15.087Z,25.68
2022-08-17T06:11:29.549Z,25.48
2022-08-17T06:16:37.475Z,25.76
2022-08-17T06:21:44.584Z,26.12
2022-08-17T06:26:48.056Z,26.10
2022-08-17T06:31:51.947Z,26.29
2022-08-17T06:37:04.246Z,26.49
2022-08-17T06:42:54.716Z,26.74
2022-08-17T06:48:13.768Z,26.89
2022-08-17T06:53:28.007Z,27.06
2022-08-17T06:58:32.425Z,27.30
2022-08-17T07:03:41.790Z,27.47
2022-08-17T07:09:06.289Z,27.36
2022-08-17T07:14:43.973Z,27.36
2022-08-17T07:19:50.972Z,27.46
2022-08-17T07:25:01.188Z,27.53
2022-08-17T07:30:25.894Z,27.60
2022-08-17T07:35:37.579Z,27.72
2022-08-17T07:41:05.411Z,27.84
2022-08-17T07:46:29.998Z,28.12
2022-08-17T07:51:39.481Z,28.05
2022-08-17T07:56:55.260Z,28.19
2022-08-17T08:01:58.218Z,28.12
2022-08-17T08:07:07.947Z,28.43
2022-08-17T08:12:30.577Z,28.28
2022-08-17T08:17:53.341Z,28.04
2022-08-17T08:23:33.877Z,28.06
2022-08-17T08:28:57.179Z,28.24
2022-08-17T08:34:47.360Z,28.62
2022-08-17T08:39:54.553Z,28.78
2022-08-17T08:45:13.107Z,28.92
2022-08-17T08:50:37.291Z,28.86
2022-08-17T08:55:53.054Z,28.72
2022-08-17T09:00:58.431Z,28.59
2022-08-17T09:06:37.588Z,28.71
2022-08-17T09:12:03.658Z,29.13
2022-08-17T09:17:14.927Z,28.99
2022-08-17T09:22:36.512Z,28.77
2022-08-17T09:28:06.030Z,28.87
2022-08-17T09:33:11.713Z,28.81
2022-08-17T09:38:35.457Z,28.75
2022-08-17T09:43:52.964Z,28.59
2022-08-17T09:49:10.649Z,28.91
2022-08-17T09:54:40.860Z,29.17
2022-08-17T09:59:53.610Z,29.45
2022-08-17T10:05:28.324Z,28.93
2022-08-17T10:10:56.448Z,29.09
2022-08-17T10:16:37.615Z,29.15
2022-08-17T10:22:00.651Z,29.28
2022-08-17T10:27:11.638Z,29.05
2022-08-17T10:32:32.311Z,29.53
2022-08-17T10:38:10.008Z,29.92
2022-08-17T10:43:31.516Z,30.02
2022-08-17T10:48:38.089Z,30.15
2022-08-17T10:53:43.668Z,30.08
2022-08-17T10:58:54.170Z,30.49
2022-08-17T11:03:57.474Z,30.40
2022-08-17T11:09:17.253Z,30.53
2022-08-17T11:14:35.687Z,30.35
2022-08-17T11:19:44.230Z,30.37
2022-08-17T11:24:51.376Z,30.06
2022-08-17T11:30:06.748Z,29.70
2022-08-17T11:35:47.269Z,29.81
2022-08-17T11:41:05.683Z,29.55
2022-08-17T11:46:25.128Z,29.88
2022-08-17T11:52:04.332Z,29.83
2022-08-17T11:57:25.539Z,29.90
2022-08-17T12:02:32.586Z,29.84
2022-08-17T12:07:43.647Z,30.05
2022-08-17T12:12:50.341Z,30.18
2022-08-17T12:17:55.081Z,29.73
2022-08-17T12:23:17.413Z,30.30
2022-08-17T12:28:29.086Z,30.54
2022-08-17T12:33:32.320Z,30.75
2022-08-17T12:38:37.775Z,30.67
2022-08-17T12:43:40.454Z,30.00
2022-08-17T12:48:59.704Z,30.02
2022-08-17T12:54:02.975Z,30.17
2022-08-17T12:59:07.235Z,29.75
2022-08-17T13:04:16.192Z,29.53
2022-08-17T13:09:39.936Z,29.25
2022-08-17T13:14:46.525Z,29.26
2022-08-17T13:19:51.113Z,29.30
2022-08-17T13:24:58.169Z,29.10
2022-08-17T13:30:11.857Z,29.19
2022-08-17T13:35:39.230Z,28.96
2022-08-17T13:40:53.311Z,28.98
2022-08-17T13:46:08.920Z,29.23
2022-08-17T13:51:21.294Z,29.22
2022-08-17T13:56:45.323Z,28.97
2022-08-17T14:01:53.840Z,28.99
2022-08-17T14:07:05.423Z,28.64
2022-08-17T14:12:13.492Z,28.71
2022-08-17T14:17:16.303Z,28.58
2022-08-17T14:22:23.812Z,28.62
2022-08-17T14:27:28.271Z,28.59
2022-08-17T14:32:34.624Z,28.62
2022-08-17T14:37:37.449Z,28.38
2022-08-17T14:42:43.024Z,28.33
2022-08-17T14:47:46.816Z,28.17
2022-08-17T14:52:49.792Z,28.09
2022-08-17T14:57:52.642Z,28.03
2022-08-17T15:02:58.597Z,27.77
2022-08-17T15:08:02.870Z,27.92
2022-08-17T15:13:15.863Z,27.88
2022-08-17T15:18:18.787Z,27.68
2022-08-17T15:23:24.411Z,27.73
2022-08-17T15:28:27.045Z,27.63
2022-08-17T15:33:31.133Z,27.50
2022-08-17T15:38:36.904Z,27.46
2022-08-17T15:43:39.528Z,27.20
2022-08-17T15:48:44.741Z,27.08
2022-08-17T15:53:51.224Z,27.08
2022-08-17T15:58:55.442Z,27.04
2022-08-17T16:04:06.764Z,26.93
2022-08-17T16:09:09.967Z,26.83
2022-08-17T16:14:13.565Z,26.69
2022-08-17T16:19:17.213Z,26.58
2022-08-17T16:24:19.924Z,26.34
2022-08-17T16:29:22.773Z,26.27
2022-08-17T16:34:25.448Z,26.14
2022-08-17T16:39:29.440Z,26.03
2022-08-17T16:44:32.725Z,25.86
2022-08-17T16:49:38.135Z,25.60
2022-08-17T16:54:45.999Z,25.66
2022-08-17T16:59:51.564Z,25.60
2022-08-17T17:05:28.533Z,25.34
2022-08-17T17:10:43.616Z,25.35
2022-08-17T17:15:57.679Z,25.20
2022-08-17T17:21:01.266Z,25.08
2022-08-17T17:26:27.451Z,24.92
2022-08-17T17:31:40.025Z,24.84
2022-08-17T17:36:48.577Z,24.65
2022-08-17T17:41:58.162Z,24.45
2022-08-17T17:47:03.223Z,24.50
2022-08-17T17:52:28.451Z,24.44
2022-08-17T17:57:57.978Z,24.24
2022-08-17T18:03:09.492Z,24.24
2022-08-17T18:08:49.993Z,24.15
2022-08-17T18:14:35.681Z,24.04
2022-08-17T18:19:40.109Z,23.97
2022-08-17T18:24:46.744Z,23.91
2022-08-17T18:29:53.315Z,23.83
2022-08-17T18:35:10.175Z,23.67
2022-08-17T18:40:19.577Z,23.57
2022-08-17T18:45:48.763Z,23.52
2022-08-17T18:50:54.110Z,23.48
2022-08-17T18:56:16.930Z,23.44
2022-08-17T19:01:21.390Z,23.23
2022-08-17T19:06:31.539Z,23.22
2022-08-17T19:11:35.877Z,23.14
2022-08-17T19:16:47.126Z,22.99
2022-08-17T19:21:53.499Z,22.78
2022-08-17T19:27:20.839Z,22.79
2022-08-17T19:32:32.091Z,22.78
2022-08-17T19:38:00.863Z,22.51
2022-08-17T19:43:12.897Z,22.60
2022-08-17T19:48:37.420Z,22.57
2022-08-17T19:54:06.358Z,22.41
2022-08-17T19:59:21.204Z,22.33
2022-08-17T20:04:32.630Z,22.30
2022-08-17T20:09:44.033Z,22.15
2022-08-17T20:15:18.748Z,22.06
2022-08-17T20:20:21.431Z,21.94
2022-08-17T20:25:32.562Z,21.82
2022-08-17T20:30:40.973Z,21.73
2022-08-17T20:36:00.673Z,21.53
2022-08-17T20:41:04.017Z,21.41
2022-08-17T20:46:26.802Z,21.30
2022-08-17T20:52:01.429Z,21.23
2022-08-17T20:57:06.775Z,21.13
2022-08-17T21:02:22.577Z,21.06
2022-08-17T21:07:43.019Z,20.93
2022-08-17T21:12:51.566Z,20.91
2022-08-17T21:18:01.078Z,20.82
2022-08-17T21:23:16.345Z,20.92
2022-08-17T21:29:00.242Z,20.81
2022-08-17T21:34:16.197Z,20.77
2022-08-17T21:39:33.081Z,20.68
2022-08-17T21:44:43.058Z,20.63
2022-08-17T21:49:45.778Z,20.60
2022-08-17T21:54:57.643Z,20.61
2022-08-17T22:00:04.988Z,20.59
2022-08-17T22:05:11.847Z,20.51
2022-08-17T22:10:49.121Z,20.47
2022-08-17T22:16:15.343Z,20.33
2022-08-17T22:21:30.941Z,20.16
2022-08-17T22:27:00.423Z,20.21
2022-08-17T22:32:03.702Z,20.05
2022-08-17T22:37:28.059Z,20.07
2022-08-17T22:42:31.293Z,19.96
2022-08-17T22:47:48.605Z,19.85
2022-08-17T22:53:18.889Z,19.91
2022-08-17T22:58:43.489Z,19.84
2022-08-17T23:04:06.769Z,19.84
2022-08-17T23:09:09.577Z,19.84
2022-08-17T23:14:14.552Z,19.86
2022-08-17T23:19:21.865Z,19.79
2022-08-17T23:24:28.012Z,19.82
2022-08-17T23:29:30.657Z,19.75
2022-08-17T23:34:33.565Z,19.57
2022-08-17T23:39:36.449Z,19.46
2022-08-17T23:44:43.684Z,19.48
2022-08-17T23:49:46.336Z,19.49
2022-08-17T23:54:49.569Z,19.34
2022-08-17T23:59:52.355Z,19.28
